CFG4TP EDDL-FSIA
Flight info
| Callsign | CFG4TP |
|---|---|
| Flight time | N/A |
| Altitude | 33000 |
| Route | DODEN7Z DODEN Y853 BOMBI T104 XERUM M867 RADIZ DCT EBITI DCT IDASI DCT AKIKA DCT BITLA/N0473F350 UN132 KEA UL607 PAXIS Y707 OBRAN L321 REXUM M872 SEMRU A727 LXR P751 PSD/N0479F370 N720 FEREB UV790 SB R775 MANDA UR775 HARGA/N0476F380 UM651 MURAL/N0478F370 UG651 ALKOS G651 KUSUB UM651 ESTOK/N0476F380 UM651 ANVIX DCT ROUTY ROUTY1D |
| Aircraft | A339/H-SADE1E2E3GHIJ3J5M1P2RWXY/LB2D1 |
Departure
| Time | N/A |
|---|---|
| Airport | Düsseldorf Airport (EDDL) |
Arrival
| Time | 2026-04-23 12:32 |
|---|---|
| Airport | Seychelles International Airport (FSIA) |
| Time | Latitude | Longitude | Altitude | Speed | Heading |
|---|---|---|---|---|---|
| 2026-04-23 12:16 | -4.21197 | 55.53072 | 10596 ft | 317 kts | 300° |
| 2026-04-23 12:16 | -4.20211 | 55.51112 | 10445 ft | 311 kts | 288° |
| 2026-04-23 12:16 | -4.20100 | 55.49004 | 10284 ft | 306 kts | 257° |
| 2026-04-23 12:16 | -4.21086 | 55.47145 | 10134 ft | 301 kts | 226° |
| 2026-04-23 12:17 | -4.22902 | 55.46081 | 9998 ft | 298 kts | 192° |
| 2026-04-23 12:17 | -4.25020 | 55.46017 | 10019 ft | 301 kts | 176° |
| 2026-04-23 12:17 | -4.27141 | 55.46161 | 9916 ft | 298 kts | 177° |
| 2026-04-23 12:17 | -4.29237 | 55.46257 | 9610 ft | 298 kts | 178° |
| 2026-04-23 12:18 | -4.31325 | 55.46308 | 9343 ft | 286 kts | 179° |
| 2026-04-23 12:18 | -4.33336 | 55.46329 | 9115 ft | 277 kts | 180° |
| 2026-04-23 12:18 | -4.35261 | 55.46333 | 8922 ft | 267 kts | 180° |
| 2026-04-23 12:18 | -4.37092 | 55.46332 | 8692 ft | 254 kts | 180° |
| 2026-04-23 12:19 | -4.38877 | 55.46330 | 8353 ft | 248 kts | 180° |
| 2026-04-23 12:19 | -4.40611 | 55.46327 | 7925 ft | 247 kts | 180° |
| 2026-04-23 12:19 | -4.42356 | 55.46325 | 7481 ft | 245 kts | 180° |
| 2026-04-23 12:19 | -4.44096 | 55.46324 | 7047 ft | 244 kts | 180° |
| 2026-04-23 12:20 | -4.45817 | 55.46324 | 6603 ft | 243 kts | 179° |
| 2026-04-23 12:20 | -4.47541 | 55.46325 | 6176 ft | 242 kts | 179° |
| 2026-04-23 12:20 | -4.49259 | 55.46324 | 5769 ft | 239 kts | 179° |
| 2026-04-23 12:20 | -4.50948 | 55.46324 | 5352 ft | 237 kts | 179° |
| 2026-04-23 12:21 | -4.52628 | 55.46325 | 4938 ft | 235 kts | 178° |
| 2026-04-23 12:21 | -4.54276 | 55.46338 | 4538 ft | 233 kts | 178° |
| 2026-04-23 12:21 | -4.55945 | 55.46378 | 3947 ft | 239 kts | 176° |
| 2026-04-23 12:21 | -4.57651 | 55.46427 | 3236 ft | 248 kts | 177° |
| 2026-04-23 12:22 | -4.59463 | 55.46445 | 2505 ft | 256 kts | 179° |
| 2026-04-23 12:22 | -4.61284 | 55.46339 | 1874 ft | 257 kts | 181° |
| 2026-04-23 12:22 | -4.63038 | 55.46406 | 1597 ft | 231 kts | 159° |
| 2026-04-23 12:22 | -4.64241 | 55.47249 | 1490 ft | 204 kts | 119° |
| 2026-04-23 12:23 | -4.65012 | 55.48461 | 748 ft | 214 kts | 115° |
| 2026-04-23 12:23 | -4.65724 | 55.49751 | 357 ft | 202 kts | 120° |
| 2026-04-23 12:23 | -4.66533 | 55.50876 | 227 ft | 202 kts | 124° |
| 2026-04-23 12:23 | -4.67242 | 55.52192 | 840 ft | 220 kts | 110° |
| 2026-04-23 12:24 | -4.67697 | 55.53657 | 1832 ft | 221 kts | 101° |
| 2026-04-23 12:24 | -4.67900 | 55.55129 | 2593 ft | 216 kts | 82° |
| 2026-04-23 12:24 | -4.67347 | 55.56588 | 3014 ft | 230 kts | 56° |
| 2026-04-23 12:24 | -4.66315 | 55.57854 | 3727 ft | 235 kts | 40° |
| 2026-04-23 12:25 | -4.64912 | 55.58746 | 4233 ft | 236 kts | 27° |
| 2026-04-23 12:25 | -4.63434 | 55.59412 | 4462 ft | 228 kts | 16° |
| 2026-04-23 12:25 | -4.61847 | 55.59694 | 4490 ft | 227 kts | 6° |
| 2026-04-23 12:25 | -4.60257 | 55.59811 | 4485 ft | 225 kts | 0° |
| 2026-04-23 12:26 | -4.58649 | 55.59721 | 4509 ft | 226 kts | 355° |
| 2026-04-23 12:26 | -4.57043 | 55.59553 | 4504 ft | 224 kts | 355° |
| 2026-04-23 12:26 | -4.55448 | 55.59368 | 4380 ft | 224 kts | 355° |
| 2026-04-23 12:26 | -4.53826 | 55.59132 | 4254 ft | 225 kts | 342° |
| 2026-04-23 12:27 | -4.52484 | 55.58264 | 3994 ft | 229 kts | 308° |
| 2026-04-23 12:27 | -4.51846 | 55.56760 | 3725 ft | 231 kts | 275° |
| 2026-04-23 12:27 | -4.51855 | 55.55075 | 3490 ft | 231 kts | 266° |
| 2026-04-23 12:27 | -4.52002 | 55.53434 | 3263 ft | 230 kts | 260° |
| 2026-04-23 12:28 | -4.52655 | 55.51935 | 2983 ft | 230 kts | 231° |
| 2026-04-23 12:28 | -4.53714 | 55.50712 | 2761 ft | 229 kts | 226° |
| 2026-04-23 12:28 | -4.54809 | 55.49519 | 2549 ft | 227 kts | 227° |
| 2026-04-23 12:28 | -4.55853 | 55.48321 | 2424 ft | 221 kts | 229° |
| 2026-04-23 12:29 | -4.56834 | 55.47139 | 2305 ft | 215 kts | 230° |
| 2026-04-23 12:29 | -4.57943 | 55.46157 | 2136 ft | 208 kts | 197° |
| 2026-04-23 12:29 | -4.59344 | 55.45999 | 1927 ft | 199 kts | 174° |
| 2026-04-23 12:29 | -4.60729 | 55.46130 | 1668 ft | 198 kts | 172° |
| 2026-04-23 12:30 | -4.62115 | 55.46258 | 1391 ft | 192 kts | 170° |
| 2026-04-23 12:30 | -4.63346 | 55.46684 | 1159 ft | 181 kts | 147° |
| 2026-04-23 12:30 | -4.64252 | 55.47530 | 923 ft | 173 kts | 128° |
| 2026-04-23 12:30 | -4.64917 | 55.48502 | 700 ft | 166 kts | 121° |
| 2026-04-23 12:31 | -4.65558 | 55.49484 | 397 ft | 164 kts | 119° |
| 2026-04-23 12:31 | -4.66189 | 55.50411 | 194 ft | 155 kts | 123° |
| 2026-04-23 12:31 | -4.66794 | 55.51276 | 41 ft | 147 kts | 123° |
| 2026-04-23 12:31 | -4.67342 | 55.52062 | 25 ft | 115 kts | 126° |
| 2026-04-23 12:32 | -4.67700 | 55.52580 | 23 ft | 69 kts | 128° |
| 2026-04-23 12:32 | -4.67925 | 55.52903 | 28 ft | 44 kts | 127° |
| 2026-04-23 12:32 | -4.68052 | 55.53078 | 29 ft | 25 kts | 128° |
| 2026-04-23 12:32 | -4.68166 | 55.53152 | 29 ft | 15 kts | 175° |
| 2026-04-23 12:33 | -4.68264 | 55.53183 | 29 ft | 12 kts | 136° |
| 2026-04-23 12:33 | -4.68249 | 55.53244 | 28 ft | 11 kts | 36° |
| 2026-04-23 12:33 | -4.68172 | 55.53235 | 28 ft | 12 kts | 307° |
| 2026-04-23 12:33 | -4.68121 | 55.53163 | 29 ft | 12 kts | 306° |
| 2026-04-23 12:34 | -4.68057 | 55.53076 | 29 ft | 17 kts | 306° |
| 2026-04-23 12:34 | -4.67977 | 55.52959 | 29 ft | 23 kts | 302° |
| 2026-04-23 12:34 | -4.67862 | 55.52798 | 27 ft | 30 kts | 304° |
| 2026-04-23 12:34 | -4.67739 | 55.52623 | 23 ft | 30 kts | 304° |
| 2026-04-23 12:35 | -4.67616 | 55.52451 | 22 ft | 28 kts | 305° |
| 2026-04-23 12:35 | -4.67514 | 55.52285 | 23 ft | 26 kts | 295° |
| 2026-04-23 12:35 | -4.67403 | 55.52143 | 24 ft | 24 kts | 304° |
| 2026-04-23 12:35 | -4.67308 | 55.52008 | 25 ft | 22 kts | 304° |
| 2026-04-23 12:36 | -4.67183 | 55.51834 | 26 ft | 32 kts | 306° |
| 2026-04-23 12:36 | -4.67057 | 55.51653 | 24 ft | 31 kts | 304° |
| 2026-04-23 12:36 | -4.66948 | 55.51489 | 23 ft | 19 kts | 304° |
| 2026-04-23 12:36 | -4.66895 | 55.51390 | 22 ft | 11 kts | 275° |
| 2026-04-23 12:37 | -4.66949 | 55.51337 | 22 ft | 11 kts | 195° |
| 2026-04-23 12:37 | -4.67012 | 55.51299 | 23 ft | 8 kts | 212° |
| 2026-04-23 12:37 | -4.67060 | 55.51283 | 24 ft | 6 kts | 199° |
| 2026-04-23 12:37 | -4.67085 | 55.51269 | 24 ft | 2 kts | 215° |
| 2026-04-23 12:38 | -4.67087 | 55.51267 | 24 ft | 0 kts | 215° |